Latest METARs, TAFs and NOTAMs for MMTO


---------------------------------------------------------------------------
	(OBSERVATIONS)
MMTO 230349Z 31006KT 7SM SKC 10/02 A3034 RK HZY=
MMTO 230246Z 34008KT 7SM  SCT200 11/02 A3032  RMK SLP147 52021
    956 8/002=
MMTO 230146Z 29004KT 7SM  SCT200 14/02 A3029 RMK 8/002 HZ FU=
---------------------------------------------------------------------------
	(TERMINAL AREA FORECAST)
MMTO 222248Z 2300/2406 04005KT P6SM SCT015 BKN200 TX22/2320Z
    TN03/2312Z
    FM230600 04005KT 3SM BR HZ SCT015 BKN250
    TEMPO 2313/2317 1SM BR VV005
    FM231700 18010KT 5SM HZ SCT015 BKN250
    BECMG 2403/2404 19005KT=
---------------------------------------------------------------------------
	(NOTAMS)


MMTO A0291/18 RWY 15/33 CLSD. 1700/1800 DAYS 16,23,30 JAN AND
    6,13,20,27 FEB, 16 JAN 17:00 2018 UNTIL 27 FEB 18:00 2018.
    CREATED: 16 JAN 16:26 2018

MMTO A0392/18 RWY 15/33 CLSD. 0400/1200 DAYS 27, 28 AND 29 JAN,
    22 JAN 04:00 2018 UNTIL 29 JAN 12:00 2018. CREATED: 22 JAN
    02:10 2018

MMTO A0420/18 ACFT STAND NR-4 COMMERCIAL AVIATION APRON CLSD.
    23 JAN 15:00 2018 UNTIL 24 JAN 22:00 2018. CREATED: 23 JAN
    02:46 2018

MMTO A0572/17 CHANGED NAME OF THE FOLLOWING REPORTING POINTS:
    LIMBO TO TAKUG NOGAL TO LENEG PUBLISHED IN CHART AD-MMTO-LL-1,
    AD-MMTO-LL-4, AD-MMTO-LL-7-RNAV/LL-8-RNAV PUBLISHED IN ANEX
    TO SUP 06/12 DATE 21-SEP-2012 MEXICO AIP. 27 JAN 03:46 2017
    UNTIL PERM. CREATED: 27 JAN 04:02 2017

---------------------------------------------------------------------------